Time;durP1;ratioP1;P1;durP2;ratioP2;P2;SDS_P1;SDS_P2;PMS_P1;PMS_P2;Temp;Humidity;BMP_temperature;BMP_pressure;BME280_temperature;BME280_humidity;BME280_pressure;Samples;Min_cycle;Max_cycle;Signal;HPM_P1;HPM_P2
2021/01/07 00:01:41;;;;;;;11.43;9.20;;;4.50;99.90;;;;;;5054318;28;20212;-66
2021/01/07 00:04:07;;;;;;;13.87;9.60;;;4.50;99.90;;;;;;5054602;28;20811;-65
2021/01/07 00:06:34;;;;;;;14.17;9.20;;;4.40;99.90;;;;;;5054629;28;20475;-65
2021/01/07 00:08:59;;;;;;;17.40;10.97;;;4.40;99.90;;;;;;5054566;28;20661;-65
2021/01/07 00:11:25;;;;;;;14.97;11.00;;;4.40;99.90;;;;;;5054122;28;20919;-65
2021/01/07 00:13:50;;;;;;;18.03;9.63;;;4.50;99.90;;;;;;5054114;28;20181;-69
2021/01/07 00:19:37;;;;;;;16.93;9.37;;;4.50;99.90;;;;;;5054346;28;20174;-66
2021/01/07 00:22:03;;;;;;;14.10;9.70;;;4.50;99.90;;;;;;5054253;28;20467;-66
2021/01/07 00:24:29;;;;;;;13.50;10.10;;;4.50;99.90;;;;;;5054285;28;20176;-66
2021/01/07 00:26:54;;;;;;;13.97;10.50;;;4.40;99.90;;;;;;5054335;28;20181;-66
2021/01/07 00:29:20;;;;;;;13.90;7.90;;;4.50;99.90;;;;;;5054224;28;20549;-66
2021/01/07 00:31:45;;;;;;;13.00;9.10;;;4.50;99.90;;;;;;5054221;28;20177;-68
2021/01/07 00:34:11;;;;;;;12.77;10.27;;;4.50;99.90;;;;;;5053819;28;20588;-66
2021/01/07 00:36:36;;;;;;;11.17;8.60;;;4.50;99.90;;;;;;5054064;28;20170;-66
2021/01/07 00:39:03;;;;;;;12.70;9.73;;;4.50;99.90;;;;;;5051742;28;20668;-66
2021/01/07 00:41:28;;;;;;;16.10;12.20;;;4.50;99.90;;;;;;5052940;28;20764;-66
2021/01/07 00:43:54;;;;;;;15.60;11.57;;;4.50;99.90;;;;;;5052431;28;20181;-66
2021/01/07 00:46:20;;;;;;;14.97;10.13;;;4.50;99.90;;;;;;5053935;28;20210;-66
2021/01/07 00:48:47;;;;;;;20.43;9.53;;;4.50;99.90;;;;;;5053594;28;20217;-66
2021/01/07 00:51:13;;;;;;;11.47;9.27;;;4.60;99.90;;;;;;5053615;28;20931;-66
2021/01/07 00:53:38;;;;;;;14.47;8.40;;;4.60;99.90;;;;;;5053833;28;20463;-67
2021/01/07 00:56:04;;;;;;;19.00;9.30;;;4.50;99.90;;;;;;5053796;28;20178;-67
2021/01/07 00:58:30;;;;;;;20.47;10.13;;;4.50;99.90;;;;;;5053393;28;20585;-67
2021/01/07 01:00:55;;;;;;;17.43;9.87;;;4.50;99.90;;;;;;5053650;28;20205;-66
2021/01/07 01:03:21;;;;;;;12.50;8.53;;;4.50;99.90;;;;;;5053404;28;20265;-66
2021/01/07 01:05:48;;;;;;;12.23;9.37;;;4.50;99.90;;;;;;5053395;28;20181;-66
2021/01/07 01:08:15;;;;;;;11.50;8.40;;;4.50;99.90;;;;;;5053339;28;20420;-66
2021/01/07 01:10:42;;;;;;;11.17;8.60;;;4.50;99.90;;;;;;5053604;28;20457;-65
2021/01/07 01:13:08;;;;;;;13.57;8.30;;;4.50;99.90;;;;;;5053603;28;20834;-66
2021/01/07 01:15:33;;;;;;;11.53;8.00;;;4.40;99.90;;;;;;5053235;28;20426;-66
2021/01/07 01:17:59;;;;;;;11.30;8.37;;;4.40;99.90;;;;;;5053497;28;20233;-66
2021/01/07 01:20:24;;;;;;;11.30;7.80;;;4.40;99.90;;;;;;5053405;28;20210;-66
2021/01/07 01:22:50;;;;;;;12.97;8.17;;;4.40;99.90;;;;;;5053485;28;20620;-66
2021/01/07 01:25:15;;;;;;;13.30;8.10;;;4.40;99.90;;;;;;5053131;28;20181;-66
2021/01/07 01:27:43;;;;;;;11.33;8.13;;;4.40;99.90;;;;;;5053121;28;20180;-66
2021/01/07 01:30:10;;;;;;;11.13;7.70;;;4.40;99.90;;;;;;5053419;28;20208;-66
2021/01/07 01:32:37;;;;;;;13.60;8.50;;;4.40;99.90;;;;;;5053028;28;20420;-66
2021/01/07 01:35:06;;;;;;;11.20;7.60;;;4.40;99.90;;;;;;5053892;28;20433;-66
2021/01/07 01:37:34;;;;;;;14.53;7.77;;;4.30;99.90;;;;;;5053363;28;20496;-66
2021/01/07 01:40:00;;;;;;;10.23;8.30;;;4.30;99.90;;;;;;5053257;28;20441;-66
2021/01/07 01:42:26;;;;;;;14.40;9.23;;;4.30;99.90;;;;;;5052963;28;20923;-67
2021/01/07 01:44:53;;;;;;;17.57;8.40;;;4.30;99.90;;;;;;5053268;28;20188;-67
2021/01/07 01:47:19;;;;;;;19.37;8.43;;;4.30;99.90;;;;;;5052941;28;20435;-67
2021/01/07 01:49:50;;;;;;;14.53;9.17;;;4.30;99.90;;;;;;5055074;28;20524;-67
2021/01/07 01:52:17;;;;;;;14.20;8.93;;;4.30;99.90;;;;;;5057223;28;20518;-67
2021/01/07 01:54:46;;;;;;;15.07;9.70;;;4.30;99.90;;;;;;5056919;28;20431;-66
2021/01/07 01:57:13;;;;;;;17.90;10.23;;;4.20;99.90;;;;;;5056746;28;20475;-66
2021/01/07 01:59:39;;;;;;;18.30;9.63;;;4.20;99.90;;;;;;5056711;28;20433;-66
2021/01/07 02:02:10;;;;;;;13.23;8.80;;;4.20;99.90;;;;;;5056926;28;20468;-67
2021/01/07 02:04:36;;;;;;;15.17;10.40;;;4.30;99.90;;;;;;5056754;28;20438;-65
2021/01/07 02:07:04;;;;;;;22.73;10.67;;;4.30;99.90;;;;;;5056929;28;20858;-66
2021/01/07 02:09:30;;;;;;;17.77;10.30;;;4.20;99.90;;;;;;5056890;28;20247;-66
2021/01/07 02:11:58;;;;;;;17.30;11.40;;;4.20;99.90;;;;;;5056849;28;20440;-67
2021/01/07 06:32:31;;;;;;;40.27;23.30;;;4.60;99.90;;;;;;5153621;23;20564;-75
2021/01/07 06:35:00;;;;;;;37.90;22.10;;;4.60;99.90;;;;;;5072351;28;20464;-76
2021/01/07 06:37:34;;;;;;;39.53;22.30;;;4.60;99.90;;;;;;5076251;28;20444;-75
2021/01/07 06:40:23;;;;;;;33.80;20.80;;;4.50;99.90;;;;;;5076301;28;20445;-75
2021/01/07 06:42:51;;;;;;;39.50;22.60;;;4.60;99.90;;;;;;5076293;28;20525;-75
2021/01/07 06:45:22;;;;;;;41.27;22.67;;;4.50;99.90;;;;;;5076730;28;20435;-75
2021/01/07 06:47:47;;;;;;;34.30;21.87;;;4.60;99.90;;;;;;5076901;28;20475;-75
2021/01/07 06:50:14;;;;;;;35.83;21.07;;;4.60;99.90;;;;;;5077069;28;20439;-74
2021/01/07 06:52:41;;;;;;;37.37;20.73;;;4.60;99.90;;;;;;5076288;28;20176;-74
2021/01/07 06:55:12;;;;;;;38.60;20.87;;;4.60;99.90;;;;;;5076371;28;20428;-75
2021/01/07 06:57:54;;;;;;;34.17;20.13;;;4.60;99.90;;;;;;5076166;28;20578;-75
2021/01/07 07:00:21;;;;;;;31.03;19.30;;;4.50;99.90;;;;;;5076338;28;20441;-75
2021/01/07 07:02:57;;;;;;;35.53;22.10;;;4.60;99.90;;;;;;5076327;28;20451;-74
2021/01/07 07:05:24;;;;;;;39.67;22.53;;;4.60;99.90;;;;;;5076358;28;20512;-74
2021/01/07 07:08:10;;;;;;;45.67;22.40;;;4.70;99.90;;;;;;5076302;28;20790;-75
2021/01/07 07:13:16;;;;;;;43.83;23.07;;;4.70;99.90;;;;;;5054462;28;20468;-72
2021/01/07 07:15:42;;;;;;;30.20;18.27;;;4.60;99.90;;;;;;5055510;28;20427;-72
2021/01/07 07:18:08;;;;;;;30.73;19.10;;;4.60;99.90;;;;;;5055299;28;20194;-72
2021/01/07 07:20:45;;;;;;;35.50;21.03;;;4.50;99.90;;;;;;5055074;28;20462;-72
2021/01/07 07:23:24;;;;;;;36.27;20.63;;;4.60;99.90;;;;;;5055217;28;20431;-72
2021/01/07 07:25:54;;;;;;;42.47;22.20;;;4.50;99.90;;;;;;5055221;28;20431;-72
2021/01/07 07:28:24;;;;;;;36.60;20.43;;;4.60;99.90;;;;;;5055022;28;20515;-72
2021/01/07 07:30:50;;;;;;;33.77;20.33;;;4.60;99.90;;;;;;5055080;28;20787;-72
2021/01/07 07:33:31;;;;;;;41.10;19.97;;;4.60;99.90;;;;;;5054930;28;20441;-71
2021/01/07 07:35:57;;;;;;;35.57;20.63;;;4.60;99.90;;;;;;5054938;28;20435;-73
2021/01/07 07:38:31;;;;;;;30.70;20.10;;;4.60;99.90;;;;;;5054658;28;20784;-72
2021/01/07 07:41:04;;;;;;;34.27;20.10;;;4.60;99.90;;;;;;5073063;28;20838;-71
2021/01/07 07:43:31;;;;;;;32.73;19.03;;;4.60;99.90;;;;;;5074648;28;20425;-72
2021/01/07 07:45:57;;;;;;;38.10;20.30;;;4.50;99.90;;;;;;5073549;28;20658;-73
2021/01/07 07:48:27;;;;;;;33.33;19.50;;;4.60;99.90;;;;;;5073430;28;20420;-72
2021/01/07 07:51:09;;;;;;;28.80;19.27;;;4.60;99.90;;;;;;5073886;28;20751;-72
2021/01/07 07:53:36;;;;;;;35.63;18.03;;;4.60;99.90;;;;;;5073506;28;20422;-72
2021/01/07 07:56:02;;;;;;;33.13;18.07;;;4.60;99.90;;;;;;5073609;28;20983;-73
2021/01/07 07:58:28;;;;;;;25.87;17.03;;;4.70;99.90;;;;;;5073671;28;20419;-72
2021/01/07 08:00:55;;;;;;;27.43;17.83;;;4.70;99.90;;;;;;5073653;28;21367;-71
2021/01/07 08:03:30;;;;;;;26.60;16.53;;;4.70;99.90;;;;;;5073481;28;20420;-72
2021/01/07 08:06:00;;;;;;;25.77;15.10;;;4.70;99.90;;;;;;5073394;28;20436;-71
2021/01/07 08:08:27;;;;;;;33.50;18.10;;;4.70;99.90;;;;;;5073318;28;20426;-70
2021/01/07 08:10:55;;;;;;;27.30;16.90;;;4.70;99.90;;;;;;5061148;28;20449;-71
2021/01/07 08:13:22;;;;;;;27.17;17.60;;;4.70;99.90;;;;;;5040447;28;20446;-72
2021/01/07 08:15:50;;;;;;;27.77;18.13;;;4.70;99.90;;;;;;5033197;28;20426;-72
2021/01/07 08:18:26;;;;;;;26.80;16.13;;;4.80;99.90;;;;;;5033148;28;20427;-71
2021/01/07 08:21:09;;;;;;;30.13;19.07;;;4.80;99.90;;;;;;5033346;28;20505;-73
2021/01/07 08:23:35;;;;;;;28.90;17.53;;;4.80;99.90;;;;;;5033158;28;20434;-72
2021/01/07 08:26:02;;;;;;;28.37;17.30;;;4.80;99.90;;;;;;5033017;28;20512;-72
2021/01/07 08:28:42;;;;;;;26.10;16.70;;;4.80;99.90;;;;;;5033017;28;20437;-72
2021/01/07 08:31:13;;;;;;;26.97;17.40;;;4.80;99.90;;;;;;5031764;28;20428;-72
2021/01/07 08:33:38;;;;;;;28.93;17.70;;;4.80;99.90;;;;;;5032819;28;20438;-72
2021/01/07 08:36:09;;;;;;;29.97;17.97;;;4.70;99.90;;;;;;5033095;28;20497;-73
2021/01/07 08:38:35;;;;;;;29.13;17.70;;;4.80;99.90;;;;;;5032801;28;20546;-72
2021/01/07 08:41:18;;;;;;;23.70;15.77;;;4.80;99.90;;;;;;5032730;28;20484;-71
2021/01/07 08:43:45;;;;;;;29.20;16.37;;;4.80;99.90;;;;;;5032754;28;20452;-72
2021/01/07 08:46:11;;;;;;;31.27;16.50;;;4.80;99.90;;;;;;5032909;28;20437;-71
2021/01/07 08:48:37;;;;;;;26.90;16.37;;;4.80;99.90;;;;;;5032493;28;20914;-71
2021/01/07 08:51:23;;;;;;;24.80;14.60;;;4.80;99.90;;;;;;5032912;28;20190;-71
2021/01/07 08:53:54;;;;;;;26.80;15.83;;;4.80;99.90;;;;;;5032771;28;20174;-71
2021/01/07 08:56:36;;;;;;;26.07;16.07;;;4.80;99.90;;;;;;5032733;28;20513;-71
2021/01/07 08:59:32;;;;;;;23.63;15.87;;;4.90;99.90;;;;;;5032057;28;20437;-71
2021/01/07 09:02:02;;;;;;;34.80;16.33;;;4.80;99.90;;;;;;5032471;28;20469;-71
2021/01/07 09:04:38;;;;;;;27.93;16.07;;;4.80;99.90;;;;;;5035062;28;20782;-71
2021/01/07 09:07:13;;;;;;;24.13;17.03;;;4.90;99.90;;;;;;5036203;28;20449;-71
2021/01/07 09:09:40;;;;;;;26.87;16.70;;;4.80;99.90;;;;;;5032093;28;20431;-71
2021/01/07 09:12:23;;;;;;;28.10;16.90;;;4.80;99.90;;;;;;5032158;28;20478;-71
2021/01/07 09:15:05;;;;;;;27.37;16.87;;;4.80;99.90;;;;;;5032589;28;20488;-72
2021/01/07 09:17:40;;;;;;;26.00;15.80;;;4.80;99.90;;;;;;5032416;28;20792;-74
2021/01/07 09:20:14;;;;;;;28.13;16.77;;;4.90;99.90;;;;;;5032116;28;20413;-77
2021/01/07 09:22:41;;;;;;;25.97;14.77;;;4.90;99.90;;;;;;5032283;28;20474;-70
2021/01/07 09:25:08;;;;;;;25.88;17.73;;;4.90;99.90;;;;;;5031401;28;20781;-73
2021/01/07 09:27:33;;;;;;;25.00;15.47;;;5.00;99.90;;;;;;5032406;28;20187;-70
2021/01/07 09:29:59;;;;;;;25.47;15.67;;;5.10;99.90;;;;;;5032378;28;20791;-73
2021/01/07 09:32:24;;;;;;;23.07;14.07;;;5.20;99.90;;;;;;5032258;28;20167;-72
2021/01/07 09:34:50;;;;;;;24.03;14.47;;;5.30;99.90;;;;;;5031118;28;20181;-78
2021/01/07 09:37:18;;;;;;;30.37;14.50;;;5.30;99.90;;;;;;5032034;28;20634;-73
2021/01/07 09:39:45;;;;;;;21.70;14.10;;;5.20;99.90;;;;;;5032122;28;20175;-73
2021/01/07 09:42:11;;;;;;;25.50;13.93;;;5.20;99.90;;;;;;5032052;28;20481;-73
2021/01/07 09:44:38;;;;;;;22.07;14.77;;;5.00;99.90;;;;;;5031953;28;20421;-73
2021/01/07 09:47:05;;;;;;;20.70;11.57;;;5.00;99.90;;;;;;5032101;28;20466;-68
2021/01/07 09:49:31;;;;;;;28.60;13.50;;;5.40;99.90;;;;;;5031959;28;20430;-67
2021/01/07 09:51:57;;;;;;;25.20;15.53;;;6.30;99.90;;;;;;5031927;28;20430;-67
2021/01/07 09:54:23;;;;;;;19.17;12.03;;;6.70;99.90;;;;;;5032240;28;20433;-67
2021/01/07 09:56:56;;;;;;;21.17;12.40;;;7.20;99.90;;;;;;5032171;28;20789;-74
2021/01/07 09:59:23;;;;;;;20.80;12.60;;;7.20;99.90;;;;;;5031937;28;20432;-73
2021/01/07 10:01:53;;;;;;;24.90;13.60;;;7.00;99.90;;;;;;5031770;28;20472;-73
2021/01/07 10:04:20;;;;;;;18.93;12.80;;;6.80;99.90;;;;;;5031849;28;20472;-73
2021/01/07 10:06:45;;;;;;;15.13;11.13;;;6.60;99.90;;;;;;5031758;28;20434;-74
2021/01/07 10:09:11;;;;;;;19.27;11.90;;;6.40;99.90;;;;;;5031969;28;20422;-74
2021/01/07 10:11:36;;;;;;;17.40;10.30;;;6.30;99.90;;;;;;5035002;28;20318;-76
2021/01/07 10:14:02;;;;;;;14.57;9.70;;;6.10;99.90;;;;;;5035523;28;20274;-73
2021/01/07 10:16:28;;;;;;;17.03;11.90;;;6.00;99.90;;;;;;5035652;28;20236;-73
2021/01/07 10:18:54;;;;;;;19.67;11.10;;;5.90;99.90;;;;;;5035690;28;20270;-72
2021/01/07 10:21:22;;;;;;;13.27;9.00;;;5.90;99.90;;;;;;5035436;28;20228;-72
2021/01/07 10:23:48;;;;;;;15.90;9.67;;;5.70;99.90;;;;;;5035596;28;20803;-75
2021/01/07 10:26:17;;;;;;;15.03;8.30;;;5.60;99.90;;;;;;5035150;28;20513;-74
2021/01/07 10:28:44;;;;;;;14.17;10.07;;;5.70;99.90;;;;;;5035377;28;20525;-75
2021/01/07 10:31:10;;;;;;;13.67;8.83;;;5.80;99.90;;;;;;5042493;28;20475;-77
2021/01/07 10:33:37;;;;;;;13.57;9.47;;;5.60;99.90;;;;;;5055122;28;20484;-76
2021/01/07 10:36:03;;;;;;;12.70;8.90;;;5.50;99.90;;;;;;5055759;28;20187;-76
2021/01/07 10:38:31;;;;;;;13.80;8.97;;;5.60;99.90;;;;;;5056046;28;20436;-76
2021/01/07 10:41:00;;;;;;;12.50;8.43;;;5.50;99.90;;;;;;5056071;28;20249;-76
2021/01/07 10:43:28;;;;;;;12.43;8.73;;;5.50;99.90;;;;;;5055168;28;20422;-76
2021/01/07 10:45:55;;;;;;;12.27;7.83;;;5.50;99.90;;;;;;5056055;28;20436;-76
2021/01/07 10:48:22;;;;;;;13.43;9.37;;;5.60;99.90;;;;;;5056029;28;20927;-75
2021/01/07 10:50:49;;;;;;;13.13;8.23;;;5.50;99.90;;;;;;5056002;28;20416;-75
2021/01/07 10:53:46;;;;;;;12.30;8.50;;;5.50;99.90;;;;;;5056125;28;20807;-75
2021/01/07 10:56:25;;;;;;;13.10;9.93;;;5.40;99.90;;;;;;5055906;28;20457;-76
2021/01/07 10:59:16;;;;;;;14.27;10.00;;;5.40;99.90;;;;;;5055924;28;20477;-76
2021/01/07 11:02:07;;;;;;;15.43;11.23;;;5.40;99.90;;;;;;5055954;28;20467;-75
2021/01/07 11:04:46;;;;;;;16.50;10.63;;;5.50;99.90;;;;;;5056145;28;20408;-76
2021/01/07 11:07:36;;;;;;;16.23;10.90;;;5.40;99.90;;;;;;5056049;28;20771;-75
2021/01/07 11:10:05;;;;;;;13.90;10.17;;;5.40;99.90;;;;;;5055666;28;20425;-76
2021/01/07 11:12:54;;;;;;;17.17;10.77;;;5.20;99.90;;;;;;5055296;28;21007;-75
2021/01/07 11:15:21;;;;;;;20.63;11.90;;;5.20;99.90;;;;;;5055022;28;20432;-75
2021/01/07 11:17:56;;;;;;;17.70;11.30;;;5.40;99.90;;;;;;5055439;28;20423;-72
2021/01/07 11:20:25;;;;;;;15.70;10.53;;;5.50;99.90;;;;;;5055445;28;20408;-73
2021/01/07 11:22:51;;;;;;;18.13;10.90;;;5.70;99.90;;;;;;5053809;28;20429;-73
2021/01/07 11:25:16;;;;;;;13.87;8.87;;;5.90;99.90;;;;;;5055240;28;20426;-72
2021/01/07 11:27:43;;;;;;;15.40;10.57;;;6.10;99.90;;;;;;5054066;28;20438;-72
2021/01/07 11:30:09;;;;;;;15.63;10.00;;;6.20;99.90;;;;;;5055376;28;20561;-72
2021/01/07 11:32:38;;;;;;;15.03;9.57;;;6.00;99.90;;;;;;5054996;28;20931;-72
2021/01/07 11:38:26;;;;;;;13.47;9.43;;;6.00;99.90;;;;;;5055090;28;20459;-72
2021/01/07 11:41:02;;;;;;;12.10;8.97;;;6.00;99.90;;;;;;5055291;28;20465;-72
2021/01/07 11:44:13;;;;;;;16.63;10.20;;;6.10;99.90;;;;;;5055332;28;20863;-74
2021/01/07 11:46:41;;;;;;;15.40;9.73;;;6.00;99.90;;;;;;5055347;28;20409;-74
2021/01/07 11:49:07;;;;;;;15.50;9.50;;;5.80;99.90;;;;;;5055733;28;20523;-75
2021/01/07 11:51:33;;;;;;;15.37;10.17;;;5.70;99.90;;;;;;5055145;28;20482;-74
2021/01/07 11:54:01;;;;;;;14.40;10.67;;;5.60;99.90;;;;;;5054891;28;20420;-74
2021/01/07 11:56:29;;;;;;;13.77;10.30;;;5.60;99.90;;;;;;5054920;28;20626;-74
2021/01/07 12:02:17;;;;;;;16.37;11.23;;;5.60;99.90;;;;;;5054733;28;20815;-74
2021/01/07 12:04:43;;;;;;;16.40;11.23;;;5.60;99.90;;;;;;5054544;28;20452;-74
2021/01/07 12:07:40;;;;;;;19.20;12.60;;;5.50;99.90;;;;;;5054784;28;20430;-74
2021/01/07 12:10:08;;;;;;;19.90;13.03;;;5.40;99.90;;;;;;5037028;28;20178;-74
2021/01/07 12:12:46;;;;;;;21.53;13.00;;;5.20;99.90;;;;;;5054204;28;21001;-74
2021/01/07 12:15:16;;;;;;;18.40;11.90;;;5.20;99.90;;;;;;5054704;28;20451;-73
2021/01/07 12:17:42;;;;;;;18.20;12.37;;;5.30;99.90;;;;;;5054617;28;20436;-73
2021/01/07 12:20:10;;;;;;;21.40;13.77;;;5.10;99.90;;;;;;5054587;28;20436;-74
2021/01/07 12:22:36;;;;;;;22.10;13.53;;;5.10;99.90;;;;;;5054351;28;20556;-74
2021/01/07 12:25:04;;;;;;;22.87;15.73;;;5.10;99.90;;;;;;5054443;28;20415;-73
2021/01/07 12:27:30;;;;;;;22.13;14.03;;;5.20;99.90;;;;;;5054200;28;21014;-73
2021/01/07 12:29:56;;;;;;;21.93;14.10;;;5.30;99.90;;;;;;5053979;28;20516;-73
2021/01/07 12:32:34;;;;;;;18.67;12.73;;;5.30;99.90;;;;;;5054061;28;20190;-73
2021/01/07 12:35:09;;;;;;;22.60;14.03;;;5.20;99.90;;;;;;5054405;28;20416;-73
2021/01/07 12:37:42;;;;;;;18.77;13.10;;;5.20;99.90;;;;;;5052791;28;20476;-73
2021/01/07 12:40:13;;;;;;;17.30;11.90;;;5.20;99.90;;;;;;5054204;28;20409;-74
2021/01/07 12:43:02;;;;;;;15.80;11.10;;;5.20;99.90;;;;;;5054078;28;20484;-74
2021/01/07 12:45:28;;;;;;;18.03;12.37;;;5.20;99.90;;;;;;5053918;28;20466;-75
2021/01/07 12:47:55;;;;;;;17.37;10.90;;;5.20;99.90;;;;;;5054147;28;20436;-75
2021/01/07 12:50:22;;;;;;;16.73;11.30;;;5.20;99.90;;;;;;5054055;28;20429;-75
2021/01/07 12:52:47;;;;;;;19.03;11.80;;;5.10;99.90;;;;;;5053983;28;20752;-76
2021/01/07 12:55:13;;;;;;;15.90;11.40;;;5.10;99.90;;;;;;5053718;28;20433;-75
2021/01/07 12:58:00;;;;;;;17.00;11.13;;;5.10;99.90;;;;;;5053551;28;20463;-73
2021/01/07 13:00:31;;;;;;;15.97;11.40;;;5.20;99.90;;;;;;5053730;28;20166;-72
2021/01/07 13:03:16;;;;;;;17.53;11.83;;;5.20;99.90;;;;;;5053721;28;20429;-76
2021/01/07 13:05:51;;;;;;;15.03;11.70;;;5.20;99.90;;;;;;5053906;28;20517;-76
2021/01/07 13:08:18;;;;;;;16.93;12.50;;;5.20;99.90;;;;;;5053850;28;20440;-74
2021/01/07 13:10:47;;;;;;;22.20;13.90;;;5.20;99.90;;;;;;5053578;28;20429;-77
2021/01/07 13:13:15;;;;;;;19.47;11.93;;;5.20;99.90;;;;;;5053283;28;20834;-76
2021/01/07 13:15:42;;;;;;;16.30;11.17;;;5.00;99.90;;;;;;5054289;28;20429;-77
2021/01/07 13:18:08;;;;;;;20.57;12.93;;;4.80;99.90;;;;;;5052476;28;20410;-76
2021/01/07 13:20:34;;;;;;;23.67;13.20;;;4.80;99.90;;;;;;5053548;28;20471;-75
2021/01/07 13:23:00;;;;;;;20.60;12.93;;;4.80;99.90;;;;;;5053452;28;20526;-75
2021/01/07 13:25:29;;;;;;;17.43;12.17;;;4.90;99.90;;;;;;5051852;28;20475;-75
2021/01/07 13:27:55;;;;;;;19.70;13.70;;;4.90;99.90;;;;;;5053570;28;20166;-75
2021/01/07 13:30:21;;;;;;;23.50;14.40;;;5.00;99.90;;;;;;5053551;28;20494;-75
2021/01/07 13:32:48;;;;;;;28.87;14.57;;;5.00;99.90;;;;;;5053293;28;20468;-75
2021/01/07 13:38:37;;;;;;;17.30;12.80;;;5.10;99.90;;;;;;5053281;28;20493;-75
2021/01/07 13:41:05;;;;;;;20.53;12.80;;;5.20;99.90;;;;;;5054229;28;20460;-75
2021/01/07 13:43:33;;;;;;;22.57;13.97;;;5.20;99.90;;;;;;5053464;28;20438;-75
2021/01/07 13:46:01;;;;;;;21.00;12.97;;;5.10;99.90;;;;;;5056132;28;20432;-74
2021/01/07 13:48:29;;;;;;;14.50;9.80;;;5.10;99.90;;;;;;5057407;28;20438;-74
2021/01/07 13:50:57;;;;;;;16.90;10.13;;;5.10;99.90;;;;;;5057535;28;20425;-74
2021/01/07 13:53:23;;;;;;;19.47;11.57;;;5.00;99.90;;;;;;5057438;28;20942;-74
2021/01/07 13:55:56;;;;;;;12.43;8.90;;;4.90;99.90;;;;;;5057360;28;20903;-74
2021/01/07 13:58:21;;;;;;;15.60;10.30;;;5.00;99.90;;;;;;5057328;28;20431;-74
2021/01/07 14:00:48;;;;;;;12.03;8.17;;;4.90;99.90;;;;;;5056869;28;20453;-74
2021/01/07 14:03:15;;;;;;;14.97;8.67;;;5.00;99.90;;;;;;5056959;28;20701;-74
2021/01/07 14:05:43;;;;;;;14.57;9.17;;;5.10;99.90;;;;;;5057209;28;20500;-74
2021/01/07 14:08:23;;;;;;;16.40;9.27;;;5.10;99.90;;;;;;5057157;28;20432;-74
2021/01/07 14:10:51;;;;;;;15.67;9.27;;;5.00;99.90;;;;;;5057155;28;20412;-74
2021/01/07 14:13:18;;;;;;;14.43;8.53;;;5.00;99.90;;;;;;5057041;28;20451;-74
2021/01/07 14:15:44;;;;;;;13.87;9.10;;;5.00;99.90;;;;;;5056949;28;20757;-74
2021/01/07 14:18:10;;;;;;;12.50;8.90;;;5.00;99.90;;;;;;5057246;28;20504;-74
2021/01/07 14:20:36;;;;;;;14.20;8.97;;;5.00;99.90;;;;;;5056760;28;20416;-74
2021/01/07 14:23:02;;;;;;;15.50;9.00;;;5.00;99.90;;;;;;5056591;28;20471;-74
2021/01/07 14:25:31;;;;;;;13.60;9.50;;;5.00;99.90;;;;;;5056861;28;20456;-74
2021/01/07 14:28:38;;;;;;;16.80;9.73;;;4.90;99.90;;;;;;5056501;28;20430;-74
2021/01/07 14:31:04;;;;;;;14.27;8.47;;;5.00;99.90;;;;;;5054148;28;20436;-74
2021/01/07 14:33:31;;;;;;;12.43;8.57;;;5.00;99.90;;;;;;5056654;28;20786;-74
2021/01/07 14:36:02;;;;;;;12.87;9.20;;;5.00;99.90;;;;;;5056674;28;20418;-74
2021/01/07 14:38:29;;;;;;;12.37;7.93;;;5.00;99.90;;;;;;5056664;28;20413;-74
2021/01/07 14:40:55;;;;;;;16.80;10.50;;;5.00;99.90;;;;;;5056544;28;20775;-74
2021/01/07 14:43:22;;;;;;;16.70;10.33;;;4.90;99.90;;;;;;5056227;28;20432;-74
2021/01/07 14:45:48;;;;;;;17.80;10.23;;;5.00;99.90;;;;;;5056488;28;20414;-74
2021/01/07 14:48:16;;;;;;;18.87;11.03;;;5.00;99.90;;;;;;5056419;28;20489;-75
2021/01/07 14:50:42;;;;;;;17.80;10.00;;;5.00;99.90;;;;;;5056378;28;20473;-74
2021/01/07 14:53:19;;;;;;;15.87;10.83;;;4.90;99.90;;;;;;5056094;28;20910;-75
2021/01/07 14:55:45;;;;;;;16.20;10.20;;;4.90;99.90;;;;;;5056081;28;20759;-75
2021/01/07 14:58:39;;;;;;;17.37;9.77;;;4.90;99.90;;;;;;5055205;28;20432;-74
2021/01/07 15:01:11;;;;;;;14.80;10.47;;;4.90;99.90;;;;;;5054347;28;20501;-74
2021/01/07 15:04:19;;;;;;;14.23;9.83;;;4.80;99.90;;;;;;5056741;28;20417;-74
2021/01/07 15:06:47;;;;;;;18.40;12.87;;;4.80;99.90;;;;;;5056190;28;20562;-75
2021/01/07 15:09:27;;;;;;;19.97;13.33;;;4.90;99.90;;;;;;5056057;28;20465;-75
2021/01/07 15:12:17;;;;;;;15.93;10.43;;;5.00;99.90;;;;;;5055439;28;21030;-74
2021/01/07 15:15:02;;;;;;;18.30;9.80;;;5.00;99.90;;;;;;5055570;28;20422;-75
2021/01/07 15:17:27;;;;;;;13.43;10.20;;;5.00;99.90;;;;;;5055897;28;20432;-74
2021/01/07 15:20:04;;;;;;;16.53;10.60;;;5.00;99.90;;;;;;5055780;28;20879;-75
2021/01/07 15:22:54;;;;;;;19.10;10.90;;;5.00;99.90;;;;;;5055982;28;20245;-74
2021/01/07 15:25:35;;;;;;;16.53;10.60;;;5.00;99.90;;;;;;5055790;28;20507;-74
2021/01/07 15:28:27;;;;;;;20.58;12.65;;;5.00;99.90;;;;;;5054499;28;20487;-74
2021/01/07 15:31:28;;;;;;;15.73;11.07;;;5.00;99.90;;;;;;5055300;28;20168;-75
2021/01/07 15:33:55;;;;;;;16.77;10.50;;;5.00;99.90;;;;;;5055354;28;20421;-75
2021/01/07 15:36:51;;;;;;;18.73;11.60;;;5.10;99.90;;;;;;5055540;28;20459;-75
2021/01/07 15:39:53;;;;;;;21.77;10.50;;;5.10;99.90;;;;;;5055413;28;20461;-75
2021/01/07 15:43:00;;;;;;;16.60;9.70;;;5.10;99.90;;;;;;5055197;28;20491;-74
2021/01/07 15:45:56;;;;;;;16.97;10.63;;;5.10;99.90;;;;;;5021877;28;20840;-75
2021/01/07 15:48:56;;;;;;;15.10;10.93;;;5.00;99.90;;;;;;5055044;28;20413;-75
2021/01/07 15:51:24;;;;;;;15.20;10.33;;;5.00;99.90;;;;;;5054964;28;20401;-74
2021/01/07 15:54:08;;;;;;;16.40;10.27;;;5.00;99.90;;;;;;5055005;28;20431;-75
2021/01/07 15:57:09;;;;;;;16.53;10.57;;;5.00;99.90;;;;;;5055085;28;20728;-74
2021/01/07 15:59:50;;;;;;;19.33;11.43;;;5.00;99.90;;;;;;5054903;28;20580;-75
2021/01/07 16:02:19;;;;;;;17.63;11.03;;;5.10;99.90;;;;;;5054751;28;20551;-74
2021/01/07 16:05:08;;;;;;;14.87;10.40;;;5.10;99.90;;;;;;5054970;28;20428;-74
2021/01/07 16:07:37;;;;;;;17.03;11.57;;;5.10;99.90;;;;;;5048771;28;20809;-74
2021/01/07 16:10:09;;;;;;;17.10;11.10;;;5.00;99.90;;;;;;5054705;28;20774;-75
2021/01/07 16:12:35;;;;;;;17.23;11.73;;;5.00;99.90;;;;;;5054407;28;20808;-74
2021/01/07 16:15:01;;;;;;;17.43;10.90;;;4.90;99.90;;;;;;5054747;28;20431;-74
2021/01/07 16:17:30;;;;;;;17.90;11.80;;;5.00;99.90;;;;;;5054385;28;20679;-74
2021/01/07 16:19:57;;;;;;;15.93;11.40;;;5.00;99.90;;;;;;5054510;28;20770;-71
2021/01/07 16:22:40;;;;;;;13.13;9.30;;;4.90;99.90;;;;;;5054484;28;20250;-72
2021/01/07 16:25:10;;;;;;;15.60;10.37;;;4.90;99.90;;;;;;5054538;28;20415;-71
2021/01/07 16:27:47;;;;;;;15.40;10.60;;;4.80;99.90;;;;;;5054169;28;20961;-72
2021/01/07 16:30:17;;;;;;;16.63;8.80;;;4.90;99.90;;;;;;5054292;28;20414;-72
2021/01/07 16:32:44;;;;;;;15.07;8.60;;;4.90;99.90;;;;;;5055164;28;20788;-72
2021/01/07 16:35:11;;;;;;;13.10;9.40;;;5.00;99.90;;;;;;5054571;28;20735;-72
2021/01/07 16:37:37;;;;;;;14.10;8.50;;;4.80;99.90;;;;;;5054199;28;20427;-72
2021/01/07 16:40:06;;;;;;;12.67;8.80;;;4.80;99.90;;;;;;5054195;28;20428;-72
2021/01/07 16:45:53;;;;;;;14.07;9.23;;;4.80;99.90;;;;;;5053822;28;20413;-72
2021/01/07 16:48:18;;;;;;;14.70;8.80;;;4.70;99.90;;;;;;5054046;28;20411;-72
2021/01/07 16:50:44;;;;;;;15.33;9.17;;;4.70;99.90;;;;;;5054176;28;20173;-72
2021/01/07 16:53:09;;;;;;;14.07;9.83;;;4.80;99.90;;;;;;5054144;28;20192;-72
2021/01/07 16:55:35;;;;;;;11.90;9.00;;;4.70;99.90;;;;;;5054063;28;20172;-72
2021/01/07 16:58:00;;;;;;;15.30;9.33;;;4.80;99.90;;;;;;5053698;28;20629;-72
2021/01/07 17:00:26;;;;;;;15.63;8.80;;;4.80;99.90;;;;;;5053626;28;20196;-72
2021/01/07 17:02:52;;;;;;;11.90;9.60;;;4.90;99.90;;;;;;5054048;28;20209;-72
2021/01/07 17:05:17;;;;;;;17.93;9.13;;;4.80;99.90;;;;;;5053656;28;20185;-72
2021/01/07 17:07:45;;;;;;;15.00;10.03;;;4.70;99.90;;;;;;5053957;28;20182;-71
2021/01/07 17:10:11;;;;;;;17.07;10.10;;;4.70;99.90;;;;;;5053857;28;20186;-72
2021/01/07 17:12:37;;;;;;;14.20;9.77;;;4.60;99.90;;;;;;5053380;28;20571;-72
2021/01/07 17:15:04;;;;;;;16.57;10.87;;;4.60;99.90;;;;;;5054165;28;20462;-72
2021/01/07 17:17:30;;;;;;;15.30;10.67;;;4.60;99.90;;;;;;5053309;28;20232;-71
2021/01/07 17:19:55;;;;;;;18.00;11.93;;;4.80;99.90;;;;;;5053213;28;20423;-72
2021/01/07 17:22:21;;;;;;;18.63;11.70;;;4.70;99.90;;;;;;5053343;28;20210;-72
2021/01/07 17:24:47;;;;;;;17.17;11.80;;;4.70;99.90;;;;;;5053692;28;20191;-72
2021/01/07 17:27:13;;;;;;;19.03;12.63;;;4.70;99.90;;;;;;5053337;28;20175;-72
2021/01/07 17:29:40;;;;;;;21.83;12.70;;;4.70;99.90;;;;;;5053642;28;20473;-72
2021/01/07 17:32:07;;;;;;;18.80;12.43;;;4.80;99.90;;;;;;5053302;28;20295;-73
2021/01/07 17:34:34;;;;;;;16.03;11.90;;;4.80;99.90;;;;;;5052020;28;20773;-73
2021/01/07 17:37:08;;;;;;;21.70;14.20;;;4.80;99.90;;;;;;5053510;28;20445;-72